• Join FlightAware (Why Join?)
  • Login
  • US Flag 
12:24PM EDT


 

Airport Tracker/Info


-or-


 

Live Flight TrackerFlight Track Log ✈ N502QS ✈ 30-Jun-2013 ✈ KLAX - NTAA / PPT

Flight Track Log - Related Links

Times and Time Zones

All times are in EDT time to prevent confusion due to time zone crossing. See the N502QS flight status page for this flight to view local times or setup timezone preferences in your user account.

Time Position Orientation Groundspeed Altitude Reporting Facility
EDT Latitude Longitude Course Direction KTS MPH feet Rate Location/Type
10:57AM 33.9339 -118.4328 264° West 180 207 1,100  Level Los Angeles Center
10:58AM 33.9283 -118.4942 264° West 206 237 3,100 2,220 Climbing Los Angeles Center
10:59AM 33.9183 -118.6028 264° West 266 306 5,700 2,520 Climbing Los Angeles Center
11:00AM 33.9108 -118.7025 265° West 279 321 8,400 2,340 Climbing Los Angeles Center
11:01AM 33.9028 -118.7986 264° West 292 336 10,500 1,860 Climbing Los Angeles Center
11:02AM 33.8597 -118.8917 241° Southwest 329 379 12,300 1,980 Climbing Los Angeles Center
11:03AM 33.7903 -118.9692 223° Southwest 342 394 14,700 2,280 Climbing Los Angeles Center
11:04AM 33.7186 -119.0481 222° Southwest 350 403 17,000 2,220 Climbing Los Angeles Center
11:06AM 33.6447 -119.1314 223° Southwest 366 421 19,300 2,040 Climbing Los Angeles Center
11:07AM 33.5661 -119.2183 223° Southwest 382 440 21,300 2,160 Climbing Los Angeles Center
11:08AM 33.4694 -119.3267 223° Southwest 395 455 23,800 2,100 Climbing Los Angeles Center
11:09AM 33.3861 -119.4197 223° Southwest 408 470 25,700 1,980 Climbing Los Angeles Center
11:10AM 33.2997 -119.5158 223° Southwest 422 486 27,900 1,860 Climbing Los Angeles Center
11:11AM 33.2136 -119.6106 223° Southwest 423 487 29,600 1,560 Climbing Los Angeles Center
11:12AM 33.1242 -119.7092 223° Southwest 436 502 31,200 1,560 Climbing Los Angeles Center
11:13AM 33.0522 -119.7881 223° Southwest 441 507 32,800 1,860 Climbing Los Angeles Center
11:14AM 32.9286 -119.9231 223° Southwest 433 498 35,100 1,860 Climbing Los Angeles Center
11:15AM 32.8408 -120.0181 222° Southwest 433 498 36,700 1,500 Climbing Los Angeles Center
11:16AM 32.7531 -120.1108 222° Southwest 428 493 38,200 1,320 Climbing Los Angeles Center
11:17AM 32.6664 -120.2072 223° Southwest 425 489 39,500 1,140 Climbing Los Angeles Center
11:18AM 32.5825 -120.2992 223° Southwest 416 479 40,600 720 Climbing Los Angeles Center
11:19AM 32.4978 -120.3878 221° Southwest 410 472 41,100 480 Climbing Los Angeles Center
11:20AM 32.4117 -120.4736 220° Southwest 408 470 41,700 480 Climbing Los Angeles Center
11:21AM 32.3253 -120.5656 222° Southwest 409 471 42,100 420 Climbing Los Angeles Center
11:22AM 32.2183 -120.6781 222° Southwest 418 481 42,600 360 Climbing Los Angeles Center
11:23AM 32.1275 -120.7739 222° Southwest 425 489 42,900 180 Climbing Los Angeles Center
11:24AM 32.0372 -120.8700 222° Southwest 430 495 43,000  Climbing Los Angeles Center
11:25AM 31.9433 -120.9692 222° Southwest 440 506 43,000  Level Los Angeles Center
11:26AM 31.8481 -121.0814 225° Southwest 461 531 43,000  Level Los Angeles Center
11:27AM 31.7522 -121.1850 223° Southwest 468 539 43,000  Level Los Angeles Center
11:28AM 31.6547 -121.2836 221° Southwest 465 535 43,000  Level Los Angeles Center
11:29AM 31.5383 -121.4028 221° Southwest 464 534 43,000  Level Los Angeles Center
11:30AM 31.4314 -121.4819 212° Southwest 461 531 43,000  Level Los Angeles Center
11:32AM 31.2882 -121.5874 212° Southwest  Level FlightAware Approximate
11:39AM 30.5056 -122.1569 212° Southwest  Level FlightAware Approximate
11:40AM 30.3936 -122.2375 212° Southwest  Level FlightAware Approximate
11:41AM 30.2815 -122.3179 212° Southwest  Level FlightAware Approximate
11:42AM 30.1694 -122.3981 212° Southwest  Level FlightAware Approximate
11:43AM 30.0573 -122.4782 212° Southwest  Level FlightAware Approximate
11:44AM 29.9446 -122.5572 212° Southwest  Level FlightAware Approximate
11:45AM 29.8333 -122.6386 212° Southwest  Level FlightAware Approximate
11:45AM 30.0000 -122.5333 212° Southwest 482 555 43,000  Level Oakland Oceanic (ODAPS)
11:46AM 29.7219 -122.7198 212° Southwest  Level FlightAware Approximate
11:47AM 29.6105 -122.8008 212° Southwest  Level FlightAware Approximate
11:48AM 29.4993 -122.8814 212° Southwest  Level FlightAware Approximate
11:49AM 29.3880 -122.9618 212° Southwest  Level FlightAware Approximate
11:50AM 29.2768 -123.0421 212° Southwest  Level FlightAware Approximate
11:51AM 29.0908 -123.1917 212° Southwest 482 555 43,000  Level FlightAware Transoceanic
11:52AM 28.9769 -123.2731 212° Southwest 482 555 43,000  Level FlightAware Transoceanic
11:53AM 28.8630 -123.3544 212° Southwest 482 555 43,000  Level FlightAware Transoceanic
11:54AM 28.7491 -123.4355 212° Southwest 482 555 43,000  Level FlightAware Transoceanic
11:55AM 28.6350 -123.5165 212° Southwest 482 555 43,000  Level FlightAware Transoceanic
11:56AM 28.5210 -123.5972 212° Southwest 482 555 43,000  Level FlightAware Transoceanic
11:57AM 28.4068 -123.6778 212° Southwest 482 555 43,000  Level FlightAware Transoceanic
11:58AM 28.2927 -123.7582 212° Southwest 482 555 43,000  Level FlightAware Transoceanic
11:59AM 28.1785 -123.8384 212° Southwest 482 555 43,000  Level FlightAware Transoceanic
12:00PM 28.0642 -123.9185 212° Southwest 482 555 43,000  Level FlightAware Transoceanic
12:01PM 27.9499 -123.9984 212° Southwest 482 555 43,000  Level FlightAware Transoceanic
12:02PM 27.8356 -124.0781 212° Southwest 482 555 43,000  Level FlightAware Transoceanic
12:03PM 27.7212 -124.1577 212° Southwest 482 555 43,000  Level FlightAware Transoceanic
12:04PM 27.6067 -124.2371 212° Southwest 482 555 43,000  Level FlightAware Transoceanic
12:05PM 27.4922 -124.3163 212° Southwest 482 555 43,000  Level FlightAware Transoceanic
12:06PM 27.3777 -124.3954 211° Southwest 482 555 43,000  Level FlightAware Transoceanic
12:07PM 27.2631 -124.4743 211° Southwest 482 555 43,000  Level FlightAware Transoceanic
12:08PM 27.1485 -124.5530 211° Southwest 482 555 43,000  Level FlightAware Transoceanic
12:09PM 27.0339 -124.6316 211° Southwest 482 555 43,000  Level FlightAware Transoceanic
12:10PM 26.9191 -124.7100 211° Southwest 482 555 43,000  Level FlightAware Transoceanic
12:11PM 26.8044 -124.7882 211° Southwest 482 555 43,000  Level FlightAware Transoceanic
12:12PM 26.6896 -124.8663 211° Southwest 482 555 43,000  Level FlightAware Transoceanic
12:13PM 26.5748 -124.9443 211° Southwest 482 555 43,000  Level FlightAware Transoceanic
12:14PM 26.4599 -125.0221 211° Southwest 482 555 43,000  Level FlightAware Transoceanic
12:15PM 26.3450 -125.0997 211° Southwest 482 555 43,000  Level FlightAware Transoceanic
12:16PM 26.2300 -125.1772 211° Southwest 482 555 43,000  Level FlightAware Transoceanic
12:17PM 26.1150 -125.2545 211° Southwest 482 555 43,000  Level FlightAware Transoceanic
12:18PM 26.0000 -125.3316 211° Southwest 482 555 43,000  Level FlightAware Transoceanic
12:19PM 25.8849 -125.4087 211° Southwest 482 555 43,000  Level FlightAware Transoceanic
12:20PM 25.7698 -125.4855 211° Southwest 482 555 43,000  Level FlightAware Transoceanic
12:21PM 25.6546 -125.5623 211° Southwest 482 555 43,000  Level FlightAware Transoceanic
12:22PM 25.5394 -125.6388 211° Southwest 482 555 43,000  Level FlightAware Transoceanic
12:23PM 25.4242 -125.7152 211° Southwest 482 555 43,000  Level FlightAware Transoceanic
12:24PM 25.3089 -125.7915 211° Southwest 482 555 43,000  Level FlightAware Transoceanic
12:25PM 25.1936 -125.8677 211° Southwest 482 555 43,000  Level FlightAware Transoceanic
12:26PM 25.0782 -125.9436 211° Southwest 482 555 43,000  Level FlightAware Transoceanic
12:27PM 24.9628 -126.0195 211° Southwest 482 555 43,000  Level FlightAware Transoceanic
12:28PM 24.8473 -126.0952 211° Southwest 482 555 43,000  Level FlightAware Transoceanic
12:29PM 24.7319 -126.1708 211° Southwest 482 555 43,000  Level FlightAware Transoceanic
12:30PM 24.6164 -126.2462 211° Southwest 482 555 43,000  Level FlightAware Transoceanic
12:31PM 24.5008 -126.3215 211° Southwest 482 555 43,000  Level FlightAware Transoceanic
12:32PM 24.3852 -126.3966 211° Southwest 482 555 43,000  Level FlightAware Transoceanic
12:33PM 24.2696 -126.4716 211° Southwest 482 555 43,000  Level FlightAware Transoceanic
12:34PM 24.1539 -126.5465 211° Southwest 482 555 43,000  Level FlightAware Transoceanic
12:35PM 24.0382 -126.6212 211° Southwest 482 555 43,000  Level FlightAware Transoceanic
12:36PM 23.9225 -126.6958 210° Southwest 482 555 43,000  Level FlightAware Transoceanic
12:37PM 23.8067 -126.7703 210° Southwest 482 555 43,000  Level FlightAware Transoceanic
12:38PM 23.6909 -126.8446 210° Southwest 482 555 43,000  Level FlightAware Transoceanic
12:39PM 23.5751 -126.9188 210° Southwest 482 555 43,000  Level FlightAware Transoceanic
12:40PM 23.4592 -126.9929 210° Southwest 482 555 43,000  Level FlightAware Transoceanic
12:41PM 23.3433 -127.0668 210° Southwest 482 555 43,000  Level FlightAware Transoceanic
12:42PM 23.2273 -127.1406 210° Southwest 482 555 43,000  Level FlightAware Transoceanic
12:43PM 23.1113 -127.2143 210° Southwest 482 555 43,000  Level FlightAware Transoceanic
12:44PM 22.9953 -127.2879 210° Southwest 482 555 43,000  Level FlightAware Transoceanic
12:45PM 22.8793 -127.3613 210° Southwest 482 555 43,000  Level FlightAware Transoceanic
12:46PM 22.7632 -127.4346 210° Southwest 482 555 43,000  Level FlightAware Transoceanic
12:47PM 22.6471 -127.5078 210° Southwest 482 555 43,000  Level FlightAware Transoceanic
12:48PM 22.5309 -127.5809 210° Southwest 482 555 43,000  Level FlightAware Transoceanic
12:49PM 22.4147 -127.6538 210° Southwest 482 555 43,000  Level FlightAware Transoceanic
12:50PM 22.2985 -127.7266 210° Southwest 482 555 43,000  Level FlightAware Transoceanic
12:51PM 22.1823 -127.7993 210° Southwest 482 555 43,000  Level FlightAware Transoceanic
12:52PM 22.0660 -127.8719 210° Southwest 482 555 43,000  Level FlightAware Transoceanic
12:53PM 21.9497 -127.9443 210° Southwest 482 555 43,000  Level FlightAware Transoceanic
12:54PM 21.8333 -128.0167 210° Southwest 482 555 43,000  Level FlightAware Transoceanic
12:55PM 21.7183 -128.0880 210° Southwest 482 555 43,000  Level FlightAware Transoceanic
12:56PM 21.6032 -128.1592 210° Southwest 482 555 43,000  Level FlightAware Transoceanic
12:56PM 21.8333 -128.0167 210° Southwest 475 547 43,000  Level Oakland Oceanic (ODAPS)
12:57PM 21.4881 -128.2302 210° Southwest 482 555 43,000  Level FlightAware Transoceanic
12:58PM 21.3729 -128.3012 210° Southwest 482 555 43,000  Level FlightAware Transoceanic
12:59PM 21.2577 -128.3721 210° Southwest 482 555 43,000  Level FlightAware Transoceanic
01:00PM 21.1425 -128.4428 210° Southwest 482 555 43,000  Level FlightAware Transoceanic
01:01PM 21.0273 -128.5134 210° Southwest 482 555 43,000  Level FlightAware Transoceanic
01:02PM 20.7967 -128.6544 210° Southwest 475 547 43,000  Level FlightAware Transoceanic
01:03PM 20.6814 -128.7247 210° Southwest 475 547 43,000  Level FlightAware Transoceanic
01:04PM 20.5660 -128.7949 210° Southwest 475 547 43,000  Level FlightAware Transoceanic
01:05PM 20.4506 -128.8650 210° Southwest 475 547 43,000  Level FlightAware Transoceanic
01:06PM 20.3352 -128.9350 210° Southwest 475 547 43,000  Level FlightAware Transoceanic
01:07PM 20.2198 -129.0049 210° Southwest 475 547 43,000  Level FlightAware Transoceanic
01:08PM 20.1043 -129.0746 210° Southwest 475 547 43,000  Level FlightAware Transoceanic
01:09PM 19.9888 -129.1443 210° Southwest 475 547 43,000  Level FlightAware Transoceanic
01:10PM 19.8733 -129.2139 210° Southwest 475 547 43,000  Level FlightAware Transoceanic
01:11PM 19.7577 -129.2834 209° Southwest 475 547 43,000  Level FlightAware Transoceanic
01:12PM 19.6422 -129.3527 209° Southwest 475 547 43,000  Level FlightAware Transoceanic
01:13PM 19.5266 -129.4220 209° Southwest 475 547 43,000  Level FlightAware Transoceanic
01:14PM 19.4109 -129.4912 209° Southwest 475 547 43,000  Level FlightAware Transoceanic
01:15PM 19.2953 -129.5603 209° Southwest 475 547 43,000  Level FlightAware Transoceanic
01:16PM 19.1796 -129.6292 209° Southwest 475 547 43,000  Level FlightAware Transoceanic
01:17PM 19.0639 -129.6981 209° Southwest 475 547 43,000  Level FlightAware Transoceanic
01:18PM 18.9482 -129.7669 209° Southwest 475 547 43,000  Level FlightAware Transoceanic
01:19PM 18.8324 -129.8356 209° Southwest 475 547 43,000  Level FlightAware Transoceanic
01:20PM 18.7166 -129.9042 209° Southwest 475 547 43,000  Level FlightAware Transoceanic
01:21PM 18.6008 -129.9727 209° Southwest 475 547 43,000  Level FlightAware Transoceanic
01:22PM 18.4850 -130.0411 209° Southwest 475 547 43,000  Level FlightAware Transoceanic
01:23PM 18.3691 -130.1094 209° Southwest 475 547 43,000  Level FlightAware Transoceanic
01:24PM 18.2532 -130.1777 209° Southwest 475 547 43,000  Level FlightAware Transoceanic
01:25PM 18.1373 -130.2458 209° Southwest 475 547 43,000  Level FlightAware Transoceanic
01:26PM 18.0214 -130.3138 209° Southwest 475 547 43,000  Level FlightAware Transoceanic
01:27PM 17.9055 -130.3818 209° Southwest 475 547 43,000  Level FlightAware Transoceanic
01:28PM 17.7895 -130.4497 209° Southwest 475 547 43,000  Level FlightAware Transoceanic
01:29PM 17.6735 -130.5174 209° Southwest 475 547 43,000  Level FlightAware Transoceanic
01:30PM 17.5575 -130.5851 209° Southwest 475 547 43,000  Level FlightAware Transoceanic
01:31PM 17.4414 -130.6527 209° Southwest 475 547 43,000  Level FlightAware Transoceanic
01:32PM 17.3253 -130.7202 209° Southwest 475 547 43,000  Level FlightAware Transoceanic
01:33PM 17.2092 -130.7877 209° Southwest 475 547 43,000  Level FlightAware Transoceanic
01:34PM 17.0931 -130.8550 209° Southwest 475 547 43,000  Level FlightAware Transoceanic
01:35PM 16.9770 -130.9223 209° Southwest 475 547 43,000  Level FlightAware Transoceanic
01:36PM 16.8608 -130.9895 209° Southwest 475 547 43,000  Level FlightAware Transoceanic
01:37PM 16.7447 -131.0566 209° Southwest 475 547 43,000  Level FlightAware Transoceanic
01:38PM 16.6285 -131.1236 209° Southwest 475 547 43,000  Level FlightAware Transoceanic
01:39PM 16.5122 -131.1905 209° Southwest 475 547 43,000  Level FlightAware Transoceanic
01:40PM 16.3960 -131.2574 209° Southwest 475 547 43,000  Level FlightAware Transoceanic
01:41PM 16.2797 -131.3242 209° Southwest 475 547 43,000  Level FlightAware Transoceanic
01:42PM 16.1634 -131.3909 209° Southwest 475 547 43,000  Level FlightAware Transoceanic
01:43PM 16.0471 -131.4575 209° Southwest 475 547 43,000  Level FlightAware Transoceanic
01:44PM 15.9308 -131.5240 209° Southwest 475 547 43,000  Level FlightAware Transoceanic
01:45PM 15.8145 -131.5905 209° Southwest 475 547 43,000  Level FlightAware Transoceanic
01:46PM 15.6981 -131.6569 209° Southwest 475 547 43,000  Level FlightAware Transoceanic
01:47PM 15.5817 -131.7232 209° Southwest 475 547 43,000  Level FlightAware Transoceanic
01:48PM 15.4653 -131.7894 209° Southwest 475 547 43,000  Level FlightAware Transoceanic
01:49PM 15.3489 -131.8556 209° Southwest 475 547 43,000  Level FlightAware Transoceanic
01:50PM 15.2324 -131.9216 209° Southwest 475 547 43,000  Level FlightAware Transoceanic
01:51PM 15.1159 -131.9877 209° Southwest 475 547 43,000  Level FlightAware Transoceanic
01:52PM 14.9995 -132.0536 209° Southwest 475 547 43,000  Level FlightAware Transoceanic
01:53PM 14.8830 -132.1195 209° Southwest 475 547 43,000  Level FlightAware Transoceanic
01:54PM 14.7664 -132.1853 209° Southwest 475 547 43,000  Level FlightAware Transoceanic
01:55PM 14.6499 -132.2510 209° Southwest 475 547 43,000  Level FlightAware Transoceanic
01:56PM 14.5333 -132.3167 209° Southwest 475 547 43,000  Level FlightAware Transoceanic
01:57PM 14.4204 -132.3802 209° Southwest 475 547 43,000  Level FlightAware Transoceanic
01:58PM 14.3075 -132.4436 209° Southwest 475 547 43,000  Level FlightAware Transoceanic
01:58PM 14.5333 -132.3167 209° Southwest 461 531 43,000  Level Oakland Oceanic (ODAPS)
01:59PM 14.1946 -132.5069 209° Southwest 475 547 43,000  Level FlightAware Transoceanic
02:00PM 14.0817 -132.5702 209° Southwest 475 547 43,000  Level FlightAware Transoceanic
02:01PM 13.9687 -132.6334 208° Southwest 475 547 43,000  Level FlightAware Transoceanic
02:02PM 13.8557 -132.6966 208° Southwest 475 547 43,000  Level FlightAware Transoceanic
02:03PM 13.7428 -132.7597 208° Southwest 475 547 43,000  Level FlightAware Transoceanic
02:04PM 13.6297 -132.8227 208° Southwest 475 547 43,000  Level FlightAware Transoceanic
02:05PM 13.5167 -132.8857 208° Southwest 461 531 43,000  Level FlightAware Transoceanic
02:06PM 13.4037 -132.9486 208° Southwest 461 531 43,000  Level FlightAware Transoceanic
02:07PM 13.2906 -133.0115 208° Southwest 461 531 43,000  Level FlightAware Transoceanic
02:08PM 13.1776 -133.0743 208° Southwest 461 531 43,000  Level FlightAware Transoceanic
02:09PM 13.0645 -133.1371 208° Southwest 461 531 43,000  Level FlightAware Transoceanic
02:10PM 12.9514 -133.1997 208° Southwest 461 531 43,000  Level FlightAware Transoceanic
02:11PM 12.8383 -133.2624 208° Southwest 461 531 43,000  Level FlightAware Transoceanic
02:12PM 12.7251 -133.3249 208° Southwest 461 531 43,000  Level FlightAware Transoceanic
02:13PM 12.6120 -133.3875 208° Southwest 461 531 43,000  Level FlightAware Transoceanic
02:14PM 12.4988 -133.4499 208° Southwest 461 531 43,000  Level FlightAware Transoceanic
02:15PM 12.3857 -133.5123 208° Southwest 461 531 43,000  Level FlightAware Transoceanic
02:16PM 12.2725 -133.5747 208° Southwest 461 531 43,000  Level FlightAware Transoceanic
02:17PM 12.1593 -133.6370 208° Southwest 461 531 43,000  Level FlightAware Transoceanic
02:18PM 12.0461 -133.6992 208° Southwest 461 531 43,000  Level FlightAware Transoceanic
02:19PM 11.9328 -133.7614 208° Southwest 461 531 43,000  Level FlightAware Transoceanic
02:20PM 11.8196 -133.8236 208° Southwest 461 531 43,000  Level FlightAware Transoceanic
02:21PM 11.7063 -133.8857 208° Southwest 461 531 43,000  Level FlightAware Transoceanic
02:22PM 11.5931 -133.9477 208° Southwest 461 531 43,000  Level FlightAware Transoceanic
02:23PM 11.4798 -134.0097 208° Southwest 461 531 43,000  Level FlightAware Transoceanic
02:24PM 11.3665 -134.0717 208° Southwest 461 531 43,000  Level FlightAware Transoceanic
02:25PM 11.2532 -134.1335 208° Southwest 461 531 43,000  Level FlightAware Transoceanic
02:26PM 11.1399 -134.1954 208° Southwest 461 531 43,000  Level FlightAware Transoceanic
02:27PM 11.0265 -134.2572 208° Southwest 461 531 43,000  Level FlightAware Transoceanic
02:28PM 10.9132 -134.3189 208° Southwest 461 531 43,000  Level FlightAware Transoceanic
02:29PM 10.7998 -134.3806 208° Southwest 461 531 43,000  Level FlightAware Transoceanic
02:30PM 10.6865 -134.4423 208° Southwest 461 531 43,000  Level FlightAware Transoceanic
02:31PM 10.5731 -134.5039 208° Southwest 461 531 43,000  Level FlightAware Transoceanic
02:32PM 10.4597 -134.5655 208° Southwest 461 531 43,000  Level FlightAware Transoceanic
02:33PM 10.3463 -134.6270 208° Southwest 461 531 43,000  Level FlightAware Transoceanic
02:34PM 10.2329 -134.6884 208° Southwest 461 531 43,000  Level FlightAware Transoceanic
02:35PM 10.1194 -134.7499 208° Southwest 461 531 43,000  Level FlightAware Transoceanic
02:36PM 10.0060 -134.8113 208° Southwest 461 531 43,000  Level FlightAware Transoceanic
02:37PM 9.8925 -134.8726 208° Southwest 461 531 43,000  Level FlightAware Transoceanic
02:38PM 9.7791 -134.9339 208° Southwest 461 531 43,000  Level FlightAware Transoceanic
02:39PM 9.6656 -134.9952 208° Southwest 461 531 43,000  Level FlightAware Transoceanic
02:40PM 9.5521 -135.0564 208° Southwest 461 531 43,000  Level FlightAware Transoceanic
02:41PM 9.4386 -135.1176 208° Southwest 461 531 43,000  Level FlightAware Transoceanic
02:42PM 9.3251 -135.1787 208° Southwest 461 531 43,000  Level FlightAware Transoceanic
02:43PM 9.2116 -135.2398 208° Southwest 461 531 43,000  Level FlightAware Transoceanic
02:44PM 9.0981 -135.3009 208° Southwest 461 531 43,000  Level FlightAware Transoceanic
02:45PM 8.9845 -135.3619 208° Southwest 461 531 43,000  Level FlightAware Transoceanic
02:46PM 8.8710 -135.4229 208° Southwest 461 531 43,000  Level FlightAware Transoceanic
02:47PM 8.7574 -135.4838 208° Southwest 461 531 43,000  Level FlightAware Transoceanic
02:48PM 8.6439 -135.5447 208° Southwest 461 531 43,000  Level FlightAware Transoceanic
02:49PM 8.5303 -135.6056 208° Southwest 461 531 43,000  Level FlightAware Transoceanic
02:50PM 8.4167 -135.6664 208° Southwest 461 531 43,000  Level FlightAware Transoceanic
02:51PM 8.3031 -135.7272 208° Southwest 461 531 43,000  Level FlightAware Transoceanic
02:52PM 8.1895 -135.7880 208° Southwest 461 531 43,000  Level FlightAware Transoceanic
02:53PM 8.0759 -135.8487 208° Southwest 461 531 43,000  Level FlightAware Transoceanic
02:54PM 7.9623 -135.9094 208° Southwest 461 531 43,000  Level FlightAware Transoceanic
02:55PM 7.8486 -135.9700 208° Southwest 461 531 43,000  Level FlightAware Transoceanic
02:56PM 7.7350 -136.0307 208° Southwest 461 531 43,000  Level FlightAware Transoceanic
02:57PM 7.6213 -136.0913 208° Southwest 461 531 43,000  Level FlightAware Transoceanic
02:58PM 7.5077 -136.1518 208° Southwest 461 531 43,000  Level FlightAware Transoceanic
02:59PM 7.3940 -136.2124 208° Southwest 461 531 43,000  Level FlightAware Transoceanic
03:00PM 7.2804 -136.2729 208° Southwest 461 531 43,000  Level FlightAware Transoceanic
03:01PM 7.1667 -136.3333 208° Southwest 461 531 43,000  Level FlightAware Transoceanic
03:02PM 7.0522 -136.3936 208° Southwest 461 531 43,000  Level FlightAware Transoceanic
03:03PM 6.9377 -136.4539 208° Southwest 461 531 43,000  Level FlightAware Transoceanic
03:04PM 6.8232 -136.5141 208° Southwest 461 531 43,000  Level FlightAware Transoceanic
03:05PM 6.7087 -136.5743 208° Southwest 461 531 43,000  Level FlightAware Transoceanic
03:06PM 6.5942 -136.6344 208° Southwest 461 531 43,000  Level FlightAware Transoceanic
03:07PM 6.4797 -136.6946 208° Southwest 461 531 43,000  Level FlightAware Transoceanic
03:07PM 7.1667 -136.3333 208° Southwest 463 533 43,000  Level Oakland Oceanic (ODAPS)
03:08PM 6.3651 -136.7547 208° Southwest 461 531 43,000  Level FlightAware Transoceanic
03:09PM 6.2506 -136.8148 208° Southwest 461 531 43,000  Level FlightAware Transoceanic
03:10PM 6.1361 -136.8748 208° Southwest 461 531 43,000  Level FlightAware Transoceanic
03:11PM 6.0215 -136.9349 208° Southwest 461 531 43,000  Level FlightAware Transoceanic
03:12PM 5.9069 -136.9949 208° Southwest 461 531 43,000  Level FlightAware Transoceanic
03:13PM 5.7924 -137.0549 208° Southwest 461 531 43,000  Level FlightAware Transoceanic
03:14PM 5.9069 -136.9949 208° Southwest 463 533 43,000  Level FlightAware Transoceanic
03:15PM 5.7924 -137.0549 208° Southwest 463 533 43,000  Level FlightAware Transoceanic
03:16PM 5.6778 -137.1148 208° Southwest 463 533 43,000  Level FlightAware Transoceanic
03:17PM 5.5632 -137.1747 207° Southwest 463 533 43,000  Level FlightAware Transoceanic
03:18PM 5.4487 -137.2346 207° Southwest 463 533 43,000  Level FlightAware Transoceanic
03:19PM 5.3341 -137.2945 207° Southwest 463 533 43,000  Level FlightAware Transoceanic
03:20PM 5.2195 -137.3544 207° Southwest 463 533 43,000  Level FlightAware Transoceanic
03:21PM 5.1049 -137.4142 207° Southwest 463 533 43,000  Level FlightAware Transoceanic
03:22PM 4.9903 -137.4741 207° Southwest 463 533 43,000  Level FlightAware Transoceanic
03:23PM 4.8757 -137.5339 207° Southwest 463 533 43,000  Level FlightAware Transoceanic
03:24PM 4.7611 -137.5936 207° Southwest 463 533 43,000  Level FlightAware Transoceanic
03:25PM 4.6464 -137.6534 207° Southwest 463 533 43,000  Level FlightAware Transoceanic
03:26PM 4.5318 -137.7131 207° Southwest 463 533 43,000  Level FlightAware Transoceanic
03:27PM 4.4172 -137.7729 207° Southwest 463 533 43,000  Level FlightAware Transoceanic
03:28PM 4.3026 -137.8326 207° Southwest 463 533 43,000  Level FlightAware Transoceanic
03:29PM 4.1879 -137.8922 207° Southwest 463 533 43,000  Level FlightAware Transoceanic
03:30PM 4.0733 -137.9519 207° Southwest 463 533 43,000  Level FlightAware Transoceanic
03:31PM 3.9586 -138.0116 207° Southwest 463 533 43,000  Level FlightAware Transoceanic
03:32PM 3.8440 -138.0712 207° Southwest 463 533 43,000  Level FlightAware Transoceanic
03:33PM 3.7293 -138.1308 207° Southwest 463 533 43,000  Level FlightAware Transoceanic
03:34PM 3.6147 -138.1904 207° Southwest 463 533 43,000  Level FlightAware Transoceanic
03:35PM 3.5000 -138.2500 207° Southwest 463 533 43,000  Level FlightAware Transoceanic
03:36PM 3.3871 -138.3071 207° Southwest 463 533 43,000  Level FlightAware Transoceanic
03:37PM 3.2743 -138.3642 207° Southwest 463 533 43,000  Level FlightAware Transoceanic
03:38PM 3.1614 -138.4213 207° Southwest 463 533 43,000  Level FlightAware Transoceanic
03:39PM 3.0485 -138.4784 207° Southwest 463 533 43,000  Level FlightAware Transoceanic
03:40PM 2.9356 -138.5355 207° Southwest 463 533 43,000  Level FlightAware Transoceanic
03:41PM 2.8227 -138.5926 207° Southwest 463 533 43,000  Level FlightAware Transoceanic
03:42PM 2.7099 -138.6496 207° Southwest 463 533 43,000  Level FlightAware Transoceanic
03:43PM 2.5970 -138.7066 207° Southwest 463 533 43,000  Level FlightAware Transoceanic
03:44PM 2.4841 -138.7637 207° Southwest 463 533 43,000  Level FlightAware Transoceanic
03:45PM 2.3712 -138.8207 207° Southwest 463 533 43,000  Level FlightAware Transoceanic
03:46PM 2.2583 -138.8777 207° Southwest 463 533 43,000  Level FlightAware Transoceanic
03:47PM 2.1454 -138.9347 207° Southwest 463 533 43,000  Level FlightAware Transoceanic
03:48PM 2.0325 -138.9917 207° Southwest 463 533 43,000  Level FlightAware Transoceanic
03:49PM 1.9196 -139.0487 207° Southwest 463 533 43,000  Level FlightAware Transoceanic
03:50PM 1.8067 -139.1057 207° Southwest 463 533 43,000  Level FlightAware Transoceanic
03:51PM 1.6938 -139.1626 207° Southwest 463 533 43,000  Level FlightAware Transoceanic
03:52PM 1.5808 -139.2196 207° Southwest 463 533 43,000  Level FlightAware Transoceanic
03:53PM 1.4679 -139.2766 207° Southwest 463 533 43,000  Level FlightAware Transoceanic
03:54PM 1.3550 -139.3335 207° Southwest 463 533 43,000  Level FlightAware Transoceanic
03:55PM 1.2421 -139.3905 207° Southwest 463 533 43,000  Level FlightAware Transoceanic
03:56PM 1.1292 -139.4474 207° Southwest 463 533 43,000  Level FlightAware Transoceanic
03:57PM 1.0163 -139.5043 207° Southwest 463 533 43,000  Level FlightAware Transoceanic
03:58PM 0.9034 -139.5613 207° Southwest 463 533 43,000  Level FlightAware Transoceanic
03:59PM 0.7904 -139.6182 207° Southwest 463 533 43,000  Level FlightAware Transoceanic
04:00PM 0.6775 -139.6751 207° Southwest 463 533 43,000  Level FlightAware Transoceanic
04:01PM 0.5646 -139.7321 207° Southwest 463 533 43,000  Level FlightAware Transoceanic
04:02PM 0.4517 -139.7890 207° Southwest 463 533 43,000  Level FlightAware Transoceanic
04:03PM 0.3388 -139.8459 207° Southwest 463 533 43,000  Level FlightAware Transoceanic
04:04PM 0.2258 -139.9028 207° Southwest 463 533 43,000  Level FlightAware Transoceanic
04:05PM 0.1129 -139.9597 207° Southwest 463 533 43,000  Level FlightAware Transoceanic
04:06PM -0.0109 -140.0039 200° South  Level FlightAware Approximate
04:07PM -0.0157 -140.0078 206° Southwest  Level FlightAware Approximate
04:08PM -0.1333 -140.0665 206° Southwest  Level FlightAware Approximate
04:09PM -0.2510 -140.1251 206° Southwest  Level FlightAware Approximate
04:10PM -0.3686 -140.1838 206° Southwest  Level FlightAware Approximate
04:11PM -0.4863 -140.2424 207° Southwest  Level FlightAware Approximate
04:12PM -0.6039 -140.3011 207° Southwest  Level FlightAware Approximate
04:13PM -0.7215 -140.3598 207° Southwest  Level FlightAware Approximate
04:14PM -0.8392 -140.4184 207° Southwest  Level FlightAware Approximate
04:15PM -0.9568 -140.4771 207° Southwest  Level FlightAware Approximate
04:16PM -1.0745 -140.5358 207° Southwest  Level FlightAware Approximate
04:17PM -1.1921 -140.5945 207° Southwest  Level FlightAware Approximate
04:18PM -1.3097 -140.6531 207° Southwest  Level FlightAware Approximate
04:19PM -1.4274 -140.7118 207° Southwest  Level FlightAware Approximate
04:20PM -1.5450 -140.7705 207° Southwest  Level FlightAware Approximate
04:21PM -1.6626 -140.8292 207° Southwest  Level FlightAware Approximate
04:22PM -1.7803 -140.8879 207° Southwest  Level FlightAware Approximate
04:23PM -1.8979 -140.9466 207° Southwest  Level FlightAware Approximate
04:24PM -2.0155 -141.0054 207° Southwest  Level FlightAware Approximate
04:25PM -2.1332 -141.0641 207° Southwest  Level FlightAware Approximate
04:26PM -2.2508 -141.1228 207° Southwest  Level FlightAware Approximate
04:27PM -2.3684 -141.1816 207° Southwest  Level FlightAware Approximate
04:28PM -2.4860 -141.2403 207° Southwest  Level FlightAware Approximate
04:29PM -2.6036 -141.2991 207° Southwest  Level FlightAware Approximate
04:30PM -2.7213 -141.3579 207° Southwest  Level FlightAware Approximate
04:31PM -2.8389 -141.4167 207° Southwest  Level FlightAware Approximate
04:32PM -2.9565 -141.4755 207° Southwest  Level FlightAware Approximate
04:33PM -3.0741 -141.5343 207° Southwest  Level FlightAware Approximate
04:34PM -3.1917 -141.5931 207° Southwest  Level FlightAware Approximate
04:35PM -3.3093 -141.6520 207° Southwest  Level FlightAware Approximate
04:36PM -3.4269 -141.7108 207° Southwest  Level FlightAware Approximate
04:37PM -3.5445 -141.7697 207° Southwest  Level FlightAware Approximate
04:38PM -3.6620 -141.8286 207° Southwest  Level FlightAware Approximate
04:39PM -3.7796 -141.8875 207° Southwest  Level FlightAware Approximate
04:40PM -3.8972 -141.9464 207° Southwest  Level FlightAware Approximate
04:41PM -4.0148 -142.0054 207° Southwest  Level FlightAware Approximate
04:42PM -4.1323 -142.0643 207° Southwest  Level FlightAware Approximate
04:43PM -4.2499 -142.1233 207° Southwest  Level FlightAware Approximate
04:44PM -4.3675 -142.1823 207° Southwest  Level FlightAware Approximate
04:45PM -4.4850 -142.2413 207° Southwest  Level FlightAware Approximate
04:46PM -4.6026 -142.3003 207° Southwest  Level FlightAware Approximate
04:47PM -4.7201 -142.3593 207° Southwest  Level FlightAware Approximate
04:48PM -4.8377 -142.4184 207° Southwest  Level FlightAware Approximate
04:49PM -4.9552 -142.4775 207° Southwest  Level FlightAware Approximate
04:50PM -5.0726 -142.5369 207° Southwest  Level FlightAware Approximate
04:51PM -5.1899 -142.5964 207° Southwest  Level FlightAware Approximate
04:52PM -5.3073 -142.6560 207° Southwest  Level FlightAware Approximate
04:53PM -5.4246 -142.7156 207° Southwest  Level FlightAware Approximate
04:54PM -5.5418 -142.7752 207° Southwest  Level FlightAware Approximate
04:55PM -5.6591 -142.8349 207° Southwest  Level FlightAware Approximate
04:56PM -5.7764 -142.8945 207° Southwest  Level FlightAware Approximate
04:57PM -5.8937 -142.9542 207° Southwest  Level FlightAware Approximate
04:58PM -6.0110 -143.0140 207° Southwest  Level FlightAware Approximate
04:59PM -6.1282 -143.0737 207° Southwest  Level FlightAware Approximate
05:00PM -6.2455 -143.1335 207° Southwest  Level FlightAware Approximate
05:01PM -6.3627 -143.1933 207° Southwest  Level FlightAware Approximate
05:02PM -6.4800 -143.2531 207° Southwest  Level FlightAware Approximate
05:03PM -6.5972 -143.3130 207° Southwest  Level FlightAware Approximate
05:04PM -6.7144 -143.3728 207° Southwest  Level FlightAware Approximate
05:05PM -6.8317 -143.4328 207° Southwest  Level FlightAware Approximate
05:06PM -6.9489 -143.4927 207° Southwest  Level FlightAware Approximate
05:07PM -7.0661 -143.5527 207° Southwest  Level FlightAware Approximate
05:08PM -7.1833 -143.6127 207° Southwest  Level FlightAware Approximate
05:09PM -7.3005 -143.6727 207° Southwest  Level FlightAware Approximate
05:10PM -7.4177 -143.7328 207° Southwest  Level FlightAware Approximate
05:11PM -7.5348 -143.7929 207° Southwest  Level FlightAware Approximate
05:12PM -7.6520 -143.8530 207° Southwest  Level FlightAware Approximate
05:13PM -7.7692 -143.9132 207° Southwest  Level FlightAware Approximate
05:14PM -7.8863 -143.9734 207° Southwest  Level FlightAware Approximate
05:15PM -8.0035 -144.0336 207° Southwest  Level FlightAware Approximate
05:16PM -8.1206 -144.0939 207° Southwest  Level FlightAware Approximate
05:17PM -8.2377 -144.1541 207° Southwest  Level FlightAware Approximate
05:18PM -8.3548 -144.2145 207° Southwest  Level FlightAware Approximate
05:19PM -8.4719 -144.2749 207° Southwest  Level FlightAware Approximate
05:20PM -8.5890 -144.3353 207° Southwest  Level FlightAware Approximate
05:21PM -8.7061 -144.3957 207° Southwest  Level FlightAware Approximate
05:22PM -8.8232 -144.4562 207° Southwest  Level FlightAware Approximate
05:23PM -8.9403 -144.5167 207° Southwest  Level FlightAware Approximate
05:24PM -9.0573 -144.5773 207° Southwest  Level FlightAware Approximate
05:25PM -9.1744 -144.6379 207° Southwest  Level FlightAware Approximate
05:26PM -9.2914 -144.6985 207° Southwest  Level FlightAware Approximate
05:27PM -9.4085 -144.7592 207° Southwest  Level FlightAware Approximate
05:28PM -9.5255 -144.8199 207° Southwest  Level FlightAware Approximate
05:29PM -9.6425 -144.8807 207° Southwest  Level FlightAware Approximate
05:30PM -9.7595 -144.9415 207° Southwest  Level FlightAware Approximate
05:31PM -9.8765 -145.0023 207° Southwest  Level FlightAware Approximate
05:32PM -9.9934 -145.0632 207° Southwest  Level FlightAware Approximate
05:33PM -10.1107 -145.1237 207° Southwest  Level FlightAware Approximate
05:34PM -10.2279 -145.1841 207° Southwest  Level FlightAware Approximate
05:35PM -10.3451 -145.2445 207° Southwest  Level FlightAware Approximate
05:36PM -10.4623 -145.3050 207° Southwest  Level FlightAware Approximate
05:37PM -10.5795 -145.3656 207° Southwest  Level FlightAware Approximate
05:38PM -10.6967 -145.4262 207° Southwest  Level FlightAware Approximate
05:39PM -10.8139 -145.4868 207° Southwest  Level FlightAware Approximate
05:40PM -10.9311 -145.5475 207° Southwest  Level FlightAware Approximate
05:41PM -11.0482 -145.6083 207° Southwest  Level FlightAware Approximate
05:42PM -11.1654 -145.6691 207° Southwest  Level FlightAware Approximate
05:43PM -11.2825 -145.7299 207° Southwest  Level FlightAware Approximate
05:44PM -11.3996 -145.7908 207° Southwest  Level FlightAware Approximate
05:45PM -11.5167 -145.8517 207° Southwest  Level FlightAware Approximate
05:46PM -11.6338 -145.9127 207° Southwest  Level FlightAware Approximate
05:47PM -11.7509 -145.9738 207° Southwest  Level FlightAware Approximate
05:48PM -11.8680 -146.0349 207° Southwest  Level FlightAware Approximate
05:49PM -11.9850 -146.0960 207° Southwest  Level FlightAware Approximate
05:50PM -12.1020 -146.1572 207° Southwest  Level FlightAware Approximate
05:51PM -12.2191 -146.2184 207° Southwest  Level FlightAware Approximate
05:52PM -12.3361 -146.2798 207° Southwest  Level FlightAware Approximate
05:53PM -12.4531 -146.3411 207° Southwest  Level FlightAware Approximate
05:54PM -12.5701 -146.4025 207° Southwest  Level FlightAware Approximate
05:55PM -12.6870 -146.4640 207° Southwest  Level FlightAware Approximate
05:56PM -12.8040 -146.5255 207° Southwest  Level FlightAware Approximate
05:57PM -12.9209 -146.5871 207° Southwest  Level FlightAware Approximate
05:58PM -13.0379 -146.6488 207° Southwest  Level FlightAware Approximate
05:59PM -13.1548 -146.7105 207° Southwest  Level FlightAware Approximate
06:00PM -13.2717 -146.7722 207° Southwest  Level FlightAware Approximate
06:01PM -13.3886 -146.8340 207° Southwest  Level FlightAware Approximate
06:02PM -13.5055 -146.8959 207° Southwest  Level FlightAware Approximate
06:03PM -13.6223 -146.9579 207° Southwest  Level FlightAware Approximate
06:04PM -13.7391 -147.0199 207° Southwest  Level FlightAware Approximate
06:05PM -13.8560 -147.0819 207° Southwest  Level FlightAware Approximate
06:06PM -13.9728 -147.1440 207° Southwest  Level FlightAware Approximate
06:07PM -14.0896 -147.2062 207° Southwest  Level FlightAware Approximate
06:08PM -14.2063 -147.2685 207° Southwest  Level FlightAware Approximate
06:09PM -14.3231 -147.3308 207° Southwest  Level FlightAware Approximate
06:10PM -14.4398 -147.3932 207° Southwest  Level FlightAware Approximate
06:11PM -14.5566 -147.4556 207° Southwest  Level FlightAware Approximate
06:12PM -14.6733 -147.5181 207° Southwest  Level FlightAware Approximate
06:13PM -14.7900 -147.5807 207° Southwest  Level FlightAware Approximate
06:14PM -14.9067 -147.6434 207° Southwest  Level FlightAware Approximate
06:15PM -15.0170 -147.7167 216° Southwest  Level FlightAware Approximate
06:16PM -15.1235 -147.7965 216° Southwest  Level FlightAware Approximate
06:17PM -15.2301 -147.8763 216° Southwest  Level FlightAware Approximate
06:18PM -15.3365 -147.9562 216° Southwest  Level FlightAware Approximate
06:19PM -15.4430 -148.0362 216° Southwest  Level FlightAware Approximate
06:20PM -15.5494 -148.1162 216° Southwest  Level FlightAware Approximate
06:21PM -15.6460 -148.2084 213° Southwest  Level FlightAware Approximate
06:22PM -15.7566 -148.2822 213° Southwest  Level FlightAware Approximate
06:23PM -15.8603 -148.3659 219° Southwest  Level FlightAware Approximate
06:24PM -15.9617 -148.4527 218° Southwest  Level FlightAware Approximate
06:25PM -16.0700 -148.5300 213° Southwest  Level FlightAware Approximate
06:26PM -16.1807 -148.6038 213° Southwest  Level FlightAware Approximate
06:27PM -16.2890 -148.6814 215° Southwest  Level FlightAware Approximate
06:28PM -16.3968 -148.7599 215° Southwest  Level FlightAware Approximate
06:29PM -16.5044 -148.8386 215° Southwest  Level FlightAware Approximate
06:30PM -16.6120 -148.9174 215° Southwest  Level FlightAware Approximate
06:31PM -16.7195 -148.9963 215° Southwest  Level FlightAware Approximate
06:32PM -16.8271 -149.0753 215° Southwest  Level FlightAware Approximate
06:33PM -16.9362 -149.1519 213° Southwest  Level FlightAware Approximate
06:34PM -17.0462 -149.2269 217° Southwest  Level FlightAware Approximate
06:35PM -17.1506 -149.3105 217° Southwest  Level FlightAware Approximate
06:36PM -17.2563 -149.3922 216° Southwest  Level FlightAware Approximate
06:37PM -17.3632 -149.4724 216° Southwest  Level FlightAware Approximate
06:38PM -17.4701 -149.5527 217° Southwest  Level FlightAware Approximate
06:39PM -17.5500 -149.6167 217° Southwest  Level FlightAware Approximate
06:40PM -17.5537 -149.6072 217° Southwest  Level Estimated
06:41PM -17.5537 -149.6072 217° Southwest  Level Estimated
06:42PM -17.5537 -149.6072 217° Southwest  Level Estimated
06:43PM -17.5537 -149.6072 217° Southwest  Level Estimated
06:44PM -17.5537 -149.6072 217° Southwest  Level Estimated
06:45PM -17.5537 -149.6072 217° Southwest  Level Estimated
06:46PM -17.5537 -149.6072 217° Southwest  Level Estimated
06:47PM -17.5537 -149.6072 217° Southwest  Level Estimated
06:48PM -17.5537 -149.6072 217° Southwest  Level Estimated
06:49PM -17.5537 -149.6072 217° Southwest  Level Estimated
06:50PM -17.5537 -149.6072 217° Southwest  Level Estimated
06:51PM -17.5537 -149.6072 217° Southwest  Level Estimated
06:52PM -17.5537 -149.6072 217° Southwest  Level Estimated
06:53PM -17.5537 -149.6072 217° Southwest  Level Estimated
06:54PM -17.5537 -149.6072 217° Southwest  Level Estimated
06:55PM -17.5537 -149.6072 217° Southwest  Level Estimated
06:56PM -17.5537 -149.6072 217° Southwest  Level Estimated
06:57PM -17.5537 -149.6072 217° Southwest  Level Estimated
06:58PM -17.5537 -149.6072 217° Southwest  Level Estimated
06:59PM -17.5537 -149.6072 217° Southwest  Level Estimated
07:00PM -17.5537 -149.6072 217° Southwest  Level Estimated
07:01PM -17.5537 -149.6072 217° Southwest  Level Estimated
07:02PM -17.5537 -149.6072 217° Southwest  Level Estimated